メインページ
METAR-TAF:

METAR-TAF

空港 :

アトランタ, ジョージア州, アメリカ合衆国

ハーツフィールド・ジャクソン・アトランタ国際空港

緯度: 33-38-25N, 経度: 084-25-37W, 海抜: 313m

現時点の気象観測

当レポートは41分前の21:52(UTC)に作成
の風 8kt
気温 34°C
湿度 39%
気圧 1018 hPa
視程: 16.1km
高度6500ftの雲は散在している, 塔状積雲.
高度25000ftの雲は散在している

METAR: KATL 262152Z 35008KT 10SM SCT065TCU SCT250 34/18 A3007 RMK AO2 SLP169 TCU N & DSNT SE T03440178

時間: 18:33 (22:33 UTC)

予報

当レポートは53分前の21:40(UTC)に作成
予報は26日の 22時(UTC)から 27日の 24時(UTC)まで有効
東/北東の風 6kt
視程: 10km
高度5000ftの雲はほとんどない
高度25000ftの千切れ雲あり
26日の 22時(UTC)から 26日の 24時(UTC)まで一時的に
変向風 18kt、最大34ktの突風を伴う
視程: 6.4km
高度4000ftの千切れ雲あり, 積乱雲.
激しい雷雨, 雨
27日の 0100時(UTC)から
南東の風 5kt
視程: 10km
高度8000ftの雲はほとんどない
27日の 0900時(UTC)から
南東の風 4kt
視程: 10km
高度1500ftの雲は散在している
27日の 1400時(UTC)から
南東の風 5kt
視程: 10km
高度3500ftの雲は散在している
27日の 1700時(UTC)から
西の風 5kt
視程: 10km
高度5000ftの雲は散在している
高度25000ftの雲は散在している
確率 30%
27日の 20時(UTC)から 27日の 23時(UTC)まで
視程: 10km
高度4000ftの千切れ雲あり, 積乱雲.
激しい雷雨, 雨

TAF: KATL 262140Z 2622/2724 06006KT P6SM FEW050 BKN250 TEMPO 2622/2624 VRB18G34KT 4SM TSRA BKN040CB FM270100 13005KT P6SM FEW080 FM270900 13004KT P6SM SCT015 FM271400 14005KT P6SM SCT035 FM271700 27005KT P6SM SCT050 SCT250 PROB30 2720/2723 P6SM TSRA BKN040CB

4,000以上の空港の気象観測と天気予報(METAR報とTAF報)

利用可能な観測所は地図上に黄色い丸と赤い丸で示す。

丸の上にカーソルを重ねると観測所名を参照できる。

次にクリックすると気象観測と天気予報を参照できる。

マップの切り替え:黒色「×」印の緑ボタンをクリックして拡大、「-」印の緑ボタンをクリックして縮小、緑色の三角印をクリックして隣りの地図に切り替え


METAR-TAF: